This is the latest recevied weather packets stored in our database for station/object VU3ZAG-WX. If no packets are shown the sender has not sent any weather packets the latest 10 day(s).
| Time | Temp. | Humidity | Pressure | Rain* | Wind** | Luminosity | Snow |
|---|---|---|---|---|---|---|---|
| 1777325176 | 34.44° C | 66% | 1006.4 hPa | - | - | - | - |
| 1777324571 | 34.44° C | 68% | 1006.5 hPa | - | - | - | - |
| 1777323966 | 34.44° C | 67% | 1006.6 hPa | - | - | - | - |
| 1777323361 | 34.44° C | 68% | 1006.7 hPa | - | - | - | - |
| 1777322755 | 34.44° C | 67% | 1006.8 hPa | - | - | - | - |
| 1777322150 | 34.44° C | 63% | 1006.9 hPa | - | - | - | - |
| 1777321544 | 34.44° C | 62% | 1007 hPa | - | - | - | - |
| 1777320939 | 34.44° C | 62% | 1007.1 hPa | - | - | - | - |
| 1777320333 | 34.44° C | 63% | 1007.2 hPa | - | - | - | - |
| 1777319122 | 34.44° C | 63% | 1007.3 hPa | - | - | - | - |
| 1777318517 | 33.89° C | 65% | 1007.4 hPa | - | - | - | - |
| 1777317912 | 34.44° C | 64% | 1007.6 hPa | - | - | - | - |
| 1777317307 | 34.44° C | 64% | 1007.8 hPa | - | - | - | - |
| 1777316701 | 34.44° C | 64% | 1007.8 hPa | - | - | - | - |
| 1777316096 | 34.44° C | 64% | 1007.8 hPa | - | - | - | - |
| 1777315491 | 34.44° C | 61% | 1008 hPa | - | - | - | - |
| 1777314885 | 33.89° C | 61% | 1008.1 hPa | - | - | - | - |
| 1777314280 | 33.89° C | 60% | 1008.2 hPa | - | - | - | - |
| 1777313674 | 33.33° C | 62% | 1008.2 hPa | - | - | - | - |
| 1777313069 | 32.78° C | 64% | 1008.2 hPa | - | - | - | - |
| 1777310705 | 36.11° C | 61% | 1006.8 hPa | - | - | - | - |
| 1777310099 | 36.67° C | 62% | 1006.2 hPa | - | - | - | - |
| 1777309494 | 37.22° C | 60% | 1005.5 hPa | - | - | - | - |
| 1777308889 | 37.22° C | 60% | 1005.5 hPa | - | - | - | - |
| 1777308283 | 37.22° C | 60% | 1005.5 hPa | - | - | - | - |
* Rain since midnight (hover to see other rain measurements)
** Current wind speed in m/s (hover to see current wind gust speed)